sensor_id;sensor_type;location;lat;lon;timestamp;pressure;altitude;pressure_sealevel;temperature;humidity
49063;BME280;34876;51.464;-0.150;2023-02-15T00:01:36;102629.54;;;17.10;39.03
49063;BME280;34876;51.464;-0.150;2023-02-15T00:04:06;102627.49;;;17.12;38.98
49063;BME280;34876;51.464;-0.150;2023-02-15T00:06:35;102626.41;;;17.13;38.89
49063;BME280;34876;51.464;-0.150;2023-02-15T00:09:04;102626.91;;;17.13;38.92
49063;BME280;34876;51.464;-0.150;2023-02-15T00:11:34;102624.34;;;17.13;38.89
49063;BME280;34876;51.464;-0.150;2023-02-15T00:14:03;102622.23;;;17.12;38.92
49063;BME280;34876;51.464;-0.150;2023-02-15T00:16:33;102615.01;;;17.12;38.99
49063;BME280;34876;51.464;-0.150;2023-02-15T00:19:02;102608.30;;;17.12;38.85
49063;BME280;34876;51.464;-0.150;2023-02-15T00:21:33;102605.26;;;17.13;38.90
49063;BME280;34876;51.464;-0.150;2023-02-15T00:24:04;102603.15;;;17.13;38.81
49063;BME280;34876;51.464;-0.150;2023-02-15T00:26:34;102595.16;;;17.13;38.78
49063;BME280;34876;51.464;-0.150;2023-02-15T00:29:04;102585.91;;;17.11;38.85
49063;BME280;34876;51.464;-0.150;2023-02-15T00:31:34;102574.16;;;17.11;38.84
49063;BME280;34876;51.464;-0.150;2023-02-15T00:34:06;102568.78;;;17.12;38.76
49063;BME280;34876;51.464;-0.150;2023-02-15T00:36:36;102566.05;;;17.12;38.82
49063;BME280;34876;51.464;-0.150;2023-02-15T00:39:07;102563.24;;;17.10;38.80
49063;BME280;34876;51.464;-0.150;2023-02-15T00:41:36;102562.54;;;17.11;38.70
49063;BME280;34876;51.464;-0.150;2023-02-15T00:44:06;102560.90;;;17.12;38.73
49063;BME280;34876;51.464;-0.150;2023-02-15T00:46:35;102562.21;;;17.14;38.62
49063;BME280;34876;51.464;-0.150;2023-02-15T00:49:05;102558.63;;;17.11;38.74
49063;BME280;34876;51.464;-0.150;2023-02-15T00:51:34;102555.10;;;17.12;38.57
49063;BME280;34876;51.464;-0.150;2023-02-15T00:54:03;102553.02;;;17.12;38.65
49063;BME280;34876;51.464;-0.150;2023-02-15T00:56:32;102551.22;;;17.13;38.58
49063;BME280;34876;51.464;-0.150;2023-02-15T00:59:02;102548.21;;;17.12;38.60
49063;BME280;34876;51.464;-0.150;2023-02-15T01:03:36;102558.30;;;17.13;38.61
49063;BME280;34876;51.464;-0.150;2023-02-15T01:06:05;102553.45;;;17.13;38.63
49063;BME280;34876;51.464;-0.150;2023-02-15T01:08:34;102552.80;;;17.12;38.69
49063;BME280;34876;51.464;-0.150;2023-02-15T01:11:04;102553.33;;;17.13;38.55
49063;BME280;34876;51.464;-0.150;2023-02-15T01:13:33;102547.80;;;17.13;38.52
49063;BME280;34876;51.464;-0.150;2023-02-15T01:16:04;102545.92;;;17.12;38.57
49063;BME280;34876;51.464;-0.150;2023-02-15T01:18:35;102539.17;;;17.12;38.48
49063;BME280;34876;51.464;-0.150;2023-02-15T01:21:10;102536.73;;;17.13;38.51
49063;BME280;34876;51.464;-0.150;2023-02-15T01:23:40;102538.90;;;17.13;38.50
49063;BME280;34876;51.464;-0.150;2023-02-15T01:26:10;102538.60;;;17.12;38.48
49063;BME280;34876;51.464;-0.150;2023-02-15T01:28:39;102532.60;;;17.13;38.41
49063;BME280;34876;51.464;-0.150;2023-02-15T01:31:10;102526.90;;;17.13;38.47
49063;BME280;34876;51.464;-0.150;2023-02-15T01:33:41;102521.94;;;17.12;38.48
49063;BME280;34876;51.464;-0.150;2023-02-15T01:36:11;102518.29;;;17.13;38.39
49063;BME280;34876;51.464;-0.150;2023-02-15T01:38:41;102511.55;;;17.12;38.47
49063;BME280;34876;51.464;-0.150;2023-02-15T01:41:11;102504.33;;;17.12;38.37
49063;BME280;34876;51.464;-0.150;2023-02-15T01:43:42;102497.07;;;17.12;38.36
49063;BME280;34876;51.464;-0.150;2023-02-15T01:46:13;102493.08;;;17.10;38.36
49063;BME280;34876;51.464;-0.150;2023-02-15T01:48:47;102490.45;;;17.10;38.40
49063;BME280;34876;51.464;-0.150;2023-02-15T01:51:19;102484.50;;;17.11;38.40
49063;BME280;34876;51.464;-0.150;2023-02-15T01:53:51;102486.19;;;17.11;38.41
49063;BME280;34876;51.464;-0.150;2023-02-15T01:56:24;102482.91;;;17.10;38.30
49063;BME280;34876;51.464;-0.150;2023-02-15T01:58:55;102480.01;;;17.10;38.37
49063;BME280;34876;51.464;-0.150;2023-02-15T02:01:27;102479.61;;;17.10;38.35
49063;BME280;34876;51.464;-0.150;2023-02-15T02:04:02;102476.94;;;17.10;38.35
49063;BME280;34876;51.464;-0.150;2023-02-15T02:06:36;102469.97;;;17.09;38.25
49063;BME280;34876;51.464;-0.150;2023-02-15T02:09:07;102465.54;;;17.07;38.36
49063;BME280;34876;51.464;-0.150;2023-02-15T02:11:36;102463.18;;;17.07;38.35
49063;BME280;34876;51.464;-0.150;2023-02-15T02:14:08;102463.24;;;17.07;38.32
49063;BME280;34876;51.464;-0.150;2023-02-15T02:16:45;102465.46;;;17.08;38.37
49063;BME280;34876;51.464;-0.150;2023-02-15T02:19:37;102461.66;;;17.08;38.26
49063;BME280;34876;51.464;-0.150;2023-02-15T02:23:35;102452.00;;;17.07;38.29
49063;BME280;34876;51.464;-0.150;2023-02-15T02:28:38;102439.63;;;17.06;38.29
49063;BME280;34876;51.464;-0.150;2023-02-15T02:31:31;102439.39;;;17.06;38.30
49063;BME280;34876;51.464;-0.150;2023-02-15T02:34:11;102439.19;;;17.06;38.35
49063;BME280;34876;51.464;-0.150;2023-02-15T02:36:52;102433.67;;;17.07;38.24
49063;BME280;34876;51.464;-0.150;2023-02-15T02:39:30;102432.67;;;17.07;38.24
49063;BME280;34876;51.464;-0.150;2023-02-15T02:42:12;102435.43;;;17.06;38.30
49063;BME280;34876;51.464;-0.150;2023-02-15T02:44:47;102437.21;;;17.07;38.21
49063;BME280;34876;51.464;-0.150;2023-02-15T02:47:22;102437.38;;;17.07;38.24
49063;BME280;34876;51.464;-0.150;2023-02-15T02:49:59;102432.90;;;17.07;38.21
49063;BME280;34876;51.464;-0.150;2023-02-15T02:52:36;102432.23;;;17.07;38.17
49063;BME280;34876;51.464;-0.150;2023-02-15T02:55:09;102435.83;;;17.06;38.25
49063;BME280;34876;51.464;-0.150;2023-02-15T02:57:51;102432.71;;;17.06;38.26
49063;BME280;34876;51.464;-0.150;2023-02-15T03:00:31;102433.25;;;17.06;38.18
49063;BME280;34876;51.464;-0.150;2023-02-15T03:03:13;102433.01;;;17.07;38.16
49063;BME280;34876;51.464;-0.150;2023-02-15T03:05:50;102429.73;;;17.04;38.21
49063;BME280;34876;51.464;-0.150;2023-02-15T03:08:26;102428.46;;;17.06;38.22
49063;BME280;34876;51.464;-0.150;2023-02-15T03:10:59;102427.95;;;17.06;38.15
49063;BME280;34876;51.464;-0.150;2023-02-15T03:13:30;102426.03;;;17.07;38.15
49063;BME280;34876;51.464;-0.150;2023-02-15T03:16:06;102422.87;;;17.05;38.23
49063;BME280;34876;51.464;-0.150;2023-02-15T03:18:46;102421.35;;;17.06;38.20
49063;BME280;34876;51.464;-0.150;2023-02-15T03:21:16;102418.62;;;17.03;38.10
49063;BME280;34876;51.464;-0.150;2023-02-15T03:23:46;102413.89;;;17.05;38.07
49063;BME280;34876;51.464;-0.150;2023-02-15T03:26:17;102407.16;;;17.06;38.10
49063;BME280;34876;51.464;-0.150;2023-02-15T03:28:50;102399.61;;;17.04;38.12
49063;BME280;34876;51.464;-0.150;2023-02-15T03:31:24;102395.13;;;17.04;38.07
49063;BME280;34876;51.464;-0.150;2023-02-15T03:33:57;102390.46;;;17.05;38.07
49063;BME280;34876;51.464;-0.150;2023-02-15T03:36:32;102387.14;;;17.06;38.14
49063;BME280;34876;51.464;-0.150;2023-02-15T03:39:13;102378.35;;;17.04;38.14
49063;BME280;34876;51.464;-0.150;2023-02-15T03:41:52;102382.77;;;17.04;38.14
49063;BME280;34876;51.464;-0.150;2023-02-15T03:44:27;102383.33;;;17.04;38.14
49063;BME280;34876;51.464;-0.150;2023-02-15T03:47:01;102384.31;;;17.05;38.18
49063;BME280;34876;51.464;-0.150;2023-02-15T03:49:38;102381.87;;;17.05;38.17
49063;BME280;34876;51.464;-0.150;2023-02-15T03:52:11;102378.80;;;17.04;38.11
49063;BME280;34876;51.464;-0.150;2023-02-15T03:54:48;102375.38;;;17.05;38.16
49063;BME280;34876;51.464;-0.150;2023-02-15T03:57:20;102376.10;;;17.05;38.22
49063;BME280;34876;51.464;-0.150;2023-02-15T03:59:51;102369.06;;;17.05;38.18
49063;BME280;34876;51.464;-0.150;2023-02-15T04:02:24;102365.29;;;17.04;38.14
49063;BME280;34876;51.464;-0.150;2023-02-15T04:04:57;102361.11;;;17.05;38.06
49063;BME280;34876;51.464;-0.150;2023-02-15T04:07:27;102361.71;;;17.06;38.04
49063;BME280;34876;51.464;-0.150;2023-02-15T04:09:57;102357.75;;;17.06;38.15
49063;BME280;34876;51.464;-0.150;2023-02-15T04:12:26;102353.73;;;17.05;38.13
49063;BME280;34876;51.464;-0.150;2023-02-15T04:14:55;102354.42;;;17.05;38.20
49063;BME280;34876;51.464;-0.150;2023-02-15T04:17:25;102352.21;;;17.06;38.17
49063;BME280;34876;51.464;-0.150;2023-02-15T04:19:54;102347.36;;;17.05;38.14
49063;BME280;34876;51.464;-0.150;2023-02-15T04:22:24;102344.99;;;17.04;38.10
49063;BME280;34876;51.464;-0.150;2023-02-15T04:24:53;102342.73;;;17.05;38.07
49063;BME280;34876;51.464;-0.150;2023-02-15T04:27:23;102345.70;;;17.05;38.18
49063;BME280;34876;51.464;-0.150;2023-02-15T04:29:51;102345.18;;;17.06;38.12
49063;BME280;34876;51.464;-0.150;2023-02-15T04:32:21;102346.61;;;17.04;38.21
49063;BME280;34876;51.464;-0.150;2023-02-15T04:34:50;102346.77;;;17.07;38.07
49063;BME280;34876;51.464;-0.150;2023-02-15T04:37:20;102346.17;;;17.06;38.16
49063;BME280;34876;51.464;-0.150;2023-02-15T04:39:50;102345.95;;;17.06;38.13
49063;BME280;34876;51.464;-0.150;2023-02-15T04:42:19;102341.07;;;17.05;38.15
49063;BME280;34876;51.464;-0.150;2023-02-15T04:44:47;102339.34;;;17.04;38.21
49063;BME280;34876;51.464;-0.150;2023-02-15T04:47:16;102335.87;;;17.05;38.13
49063;BME280;34876;51.464;-0.150;2023-02-15T04:49:46;102332.94;;;17.05;38.10
49063;BME280;34876;51.464;-0.150;2023-02-15T04:52:15;102338.29;;;17.06;38.10
49063;BME280;34876;51.464;-0.150;2023-02-15T04:54:45;102335.27;;;17.06;38.11
49063;BME280;34876;51.464;-0.150;2023-02-15T04:57:14;102335.72;;;17.06;38.17
49063;BME280;34876;51.464;-0.150;2023-02-15T04:59:43;102334.75;;;17.07;38.09
49063;BME280;34876;51.464;-0.150;2023-02-15T05:02:13;102330.88;;;17.05;38.18
49063;BME280;34876;51.464;-0.150;2023-02-15T05:04:42;102331.49;;;17.05;38.17
49063;BME280;34876;51.464;-0.150;2023-02-15T05:07:11;102331.09;;;17.06;38.14
49063;BME280;34876;51.464;-0.150;2023-02-15T05:09:42;102328.86;;;17.05;38.09
49063;BME280;34876;51.464;-0.150;2023-02-15T05:12:31;102327.31;;;17.07;38.12
49063;BME280;34876;51.464;-0.150;2023-02-15T05:15:00;102323.05;;;17.05;38.13
49063;BME280;34876;51.464;-0.150;2023-02-15T05:17:28;102315.63;;;17.07;38.07
49063;BME280;34876;51.464;-0.150;2023-02-15T05:19:59;102319.75;;;17.08;38.07
49063;BME280;34876;51.464;-0.150;2023-02-15T05:22:28;102314.45;;;17.07;38.08
49063;BME280;34876;51.464;-0.150;2023-02-15T05:24:57;102311.71;;;17.07;38.12
49063;BME280;34876;51.464;-0.150;2023-02-15T05:27:27;102308.15;;;17.07;38.06
49063;BME280;34876;51.464;-0.150;2023-02-15T05:29:55;102305.95;;;17.07;38.11
49063;BME280;34876;51.464;-0.150;2023-02-15T05:32:25;102303.23;;;17.09;38.11
49063;BME280;34876;51.464;-0.150;2023-02-15T05:34:54;102304.54;;;17.08;38.10
49063;BME280;34876;51.464;-0.150;2023-02-15T05:37:24;102302.41;;;17.08;38.04
49063;BME280;34876;51.464;-0.150;2023-02-15T05:39:54;102307.19;;;17.09;38.08
49063;BME280;34876;51.464;-0.150;2023-02-15T05:42:23;102306.32;;;17.08;38.08
49063;BME280;34876;51.464;-0.150;2023-02-15T05:44:52;102305.09;;;17.08;38.16
49063;BME280;34876;51.464;-0.150;2023-02-15T05:47:20;102300.68;;;17.08;38.14
49063;BME280;34876;51.464;-0.150;2023-02-15T05:49:49;102301.95;;;17.09;38.11
49063;BME280;34876;51.464;-0.150;2023-02-15T05:52:18;102295.52;;;17.09;38.11
49063;BME280;34876;51.464;-0.150;2023-02-15T05:54:47;102295.34;;;17.09;38.12
49063;BME280;34876;51.464;-0.150;2023-02-15T05:57:17;102293.09;;;17.08;38.19
49063;BME280;34876;51.464;-0.150;2023-02-15T05:59:46;102298.20;;;17.09;38.12
49063;BME280;34876;51.464;-0.150;2023-02-15T06:02:15;102300.64;;;17.10;38.13
49063;BME280;34876;51.464;-0.150;2023-02-15T06:04:44;102301.82;;;17.09;38.15
49063;BME280;34876;51.464;-0.150;2023-02-15T06:07:13;102301.05;;;17.09;38.15
49063;BME280;34876;51.464;-0.150;2023-02-15T06:09:43;102297.58;;;17.09;38.13
49063;BME280;34876;51.464;-0.150;2023-02-15T06:12:12;102300.21;;;17.09;38.13
49063;BME280;34876;51.464;-0.150;2023-02-15T06:14:41;102297.42;;;17.09;38.17
49063;BME280;34876;51.464;-0.150;2023-02-15T06:17:11;102298.87;;;17.09;38.16
49063;BME280;34876;51.464;-0.150;2023-02-15T06:19:41;102298.44;;;17.11;38.13
49063;BME280;34876;51.464;-0.150;2023-02-15T06:22:11;102294.67;;;17.09;38.17
49063;BME280;34876;51.464;-0.150;2023-02-15T06:24:40;102291.35;;;17.10;38.16
49063;BME280;34876;51.464;-0.150;2023-02-15T06:27:09;102290.79;;;17.10;38.16
49063;BME280;34876;51.464;-0.150;2023-02-15T06:29:39;102296.62;;;17.09;38.11
49063;BME280;34876;51.464;-0.150;2023-02-15T06:32:08;102296.29;;;17.09;38.11
49063;BME280;34876;51.464;-0.150;2023-02-15T06:34:37;102297.41;;;17.09;38.20
49063;BME280;34876;51.464;-0.150;2023-02-15T06:37:06;102298.71;;;17.09;38.20
49063;BME280;34876;51.464;-0.150;2023-02-15T06:39:35;102298.51;;;17.10;38.16
49063;BME280;34876;51.464;-0.150;2023-02-15T06:42:04;102297.96;;;17.09;38.16
49063;BME280;34876;51.464;-0.150;2023-02-15T06:44:33;102294.33;;;17.09;38.21
49063;BME280;34876;51.464;-0.150;2023-02-15T06:47:02;102296.64;;;17.09;38.16
49063;BME280;34876;51.464;-0.150;2023-02-15T06:49:31;102292.67;;;17.09;38.11
49063;BME280;34876;51.464;-0.150;2023-02-15T06:52:00;102290.70;;;17.09;38.19
49063;BME280;34876;51.464;-0.150;2023-02-15T06:54:29;102289.53;;;17.09;38.17
49063;BME280;34876;51.464;-0.150;2023-02-15T06:56:58;102289.78;;;17.08;38.21
49063;BME280;34876;51.464;-0.150;2023-02-15T06:59:27;102293.83;;;17.09;38.15
49063;BME280;34876;51.464;-0.150;2023-02-15T07:01:56;102293.76;;;17.10;38.13
49063;BME280;34876;51.464;-0.150;2023-02-15T07:04:25;102293.36;;;17.10;38.10
49063;BME280;34876;51.464;-0.150;2023-02-15T07:06:54;102296.11;;;17.10;38.23
49063;BME280;34876;51.464;-0.150;2023-02-15T07:09:23;102302.47;;;17.10;38.14
49063;BME280;34876;51.464;-0.150;2023-02-15T07:11:52;102305.37;;;17.10;38.21
49063;BME280;34876;51.464;-0.150;2023-02-15T07:14:22;102302.76;;;17.10;38.17
49063;BME280;34876;51.464;-0.150;2023-02-15T07:16:51;102302.35;;;17.10;38.16
49063;BME280;34876;51.464;-0.150;2023-02-15T07:19:20;102304.05;;;17.10;38.28
49063;BME280;34876;51.464;-0.150;2023-02-15T07:21:49;102310.72;;;17.11;38.22
49063;BME280;34876;51.464;-0.150;2023-02-15T07:24:18;102313.03;;;17.10;38.20
49063;BME280;34876;51.464;-0.150;2023-02-15T07:26:47;102312.05;;;17.12;38.11
49063;BME280;34876;51.464;-0.150;2023-02-15T07:29:17;102316.52;;;17.11;38.15
49063;BME280;34876;51.464;-0.150;2023-02-15T07:31:47;102318.01;;;17.12;38.16
49063;BME280;34876;51.464;-0.150;2023-02-15T07:34:16;102318.76;;;17.14;38.09
49063;BME280;34876;51.464;-0.150;2023-02-15T07:36:44;102316.23;;;17.12;38.15
49063;BME280;34876;51.464;-0.150;2023-02-15T07:39:13;102314.59;;;17.13;38.16
49063;BME280;34876;51.464;-0.150;2023-02-15T07:41:42;102316.49;;;17.13;38.12
49063;BME280;34876;51.464;-0.150;2023-02-15T07:44:13;102312.32;;;17.14;38.14
49063;BME280;34876;51.464;-0.150;2023-02-15T07:46:42;102309.95;;;17.15;38.14
49063;BME280;34876;51.464;-0.150;2023-02-15T07:49:10;102311.91;;;17.15;38.22
49063;BME280;34876;51.464;-0.150;2023-02-15T07:51:39;102314.79;;;17.16;38.11
49063;BME280;34876;51.464;-0.150;2023-02-15T07:54:08;102319.71;;;17.18;38.07
49063;BME280;34876;51.464;-0.150;2023-02-15T07:56:37;102323.23;;;17.18;38.09
49063;BME280;34876;51.464;-0.150;2023-02-15T07:59:07;102328.92;;;17.19;38.09
49063;BME280;34876;51.464;-0.150;2023-02-15T08:01:37;102334.10;;;17.19;38.07
49063;BME280;34876;51.464;-0.150;2023-02-15T08:04:08;102333.54;;;17.19;38.09
49063;BME280;34876;51.464;-0.150;2023-02-15T08:06:37;102332.67;;;17.21;38.04
49063;BME280;34876;51.464;-0.150;2023-02-15T08:09:08;102335.09;;;17.22;38.05
49063;BME280;34876;51.464;-0.150;2023-02-15T08:11:38;102335.94;;;17.22;38.05
49063;BME280;34876;51.464;-0.150;2023-02-15T08:14:09;102334.02;;;17.23;38.00
49063;BME280;34876;51.464;-0.150;2023-02-15T08:16:40;102332.96;;;17.24;38.00
49063;BME280;34876;51.464;-0.150;2023-02-15T08:19:12;102332.03;;;17.26;37.95
49063;BME280;34876;51.464;-0.150;2023-02-15T08:21:43;102330.12;;;17.26;37.91
49063;BME280;34876;51.464;-0.150;2023-02-15T08:24:13;102329.35;;;17.28;37.97
49063;BME280;34876;51.464;-0.150;2023-02-15T08:26:43;102324.77;;;17.30;37.91
49063;BME280;34876;51.464;-0.150;2023-02-15T08:29:12;102320.04;;;17.29;37.94
49063;BME280;34876;51.464;-0.150;2023-02-15T08:31:42;102318.06;;;17.30;37.88
49063;BME280;34876;51.464;-0.150;2023-02-15T08:34:14;102320.31;;;17.31;37.91
49063;BME280;34876;51.464;-0.150;2023-02-15T08:36:44;102322.79;;;17.33;37.89
49063;BME280;34876;51.464;-0.150;2023-02-15T08:39:14;102320.83;;;17.33;37.92
49063;BME280;34876;51.464;-0.150;2023-02-15T08:41:44;102319.40;;;17.34;37.79
49063;BME280;34876;51.464;-0.150;2023-02-15T08:44:15;102319.07;;;17.36;37.85
49063;BME280;34876;51.464;-0.150;2023-02-15T08:46:46;102311.27;;;17.35;37.82
49063;BME280;34876;51.464;-0.150;2023-02-15T08:49:19;102305.09;;;17.38;37.77
49063;BME280;34876;51.464;-0.150;2023-02-15T08:51:49;102302.95;;;17.41;37.74
49063;BME280;34876;51.464;-0.150;2023-02-15T08:54:20;102304.50;;;17.44;37.70
49063;BME280;34876;51.464;-0.150;2023-02-15T08:56:49;102302.94;;;17.47;37.66
49063;BME280;34876;51.464;-0.150;2023-02-15T08:59:20;102303.69;;;17.49;37.64
49063;BME280;34876;51.464;-0.150;2023-02-15T09:01:51;102302.21;;;17.54;37.48
49063;BME280;34876;51.464;-0.150;2023-02-15T09:04:21;102303.76;;;17.52;37.57
49063;BME280;34876;51.464;-0.150;2023-02-15T09:06:50;102303.60;;;17.58;37.45
49063;BME280;34876;51.464;-0.150;2023-02-15T09:09:21;102302.81;;;17.58;37.48
49063;BME280;34876;51.464;-0.150;2023-02-15T09:11:51;102301.14;;;17.56;37.55
49063;BME280;34876;51.464;-0.150;2023-02-15T09:14:26;102305.05;;;17.54;37.50
49063;BME280;34876;51.464;-0.150;2023-02-15T09:16:56;102311.31;;;17.53;37.64
49063;BME280;34876;51.464;-0.150;2023-02-15T09:19:26;102312.33;;;17.52;37.67
49063;BME280;34876;51.464;-0.150;2023-02-15T09:21:55;102308.11;;;17.51;37.66
49063;BME280;34876;51.464;-0.150;2023-02-15T09:24:24;102307.92;;;17.50;37.75
49063;BME280;34876;51.464;-0.150;2023-02-15T09:26:53;102305.73;;;17.50;37.80
49063;BME280;34876;51.464;-0.150;2023-02-15T09:29:22;102304.37;;;17.50;37.78
49063;BME280;34876;51.464;-0.150;2023-02-15T09:31:50;102306.36;;;17.53;37.65
49063;BME280;34876;51.464;-0.150;2023-02-15T09:34:21;102309.12;;;17.55;37.67
49063;BME280;34876;51.464;-0.150;2023-02-15T09:36:51;102312.57;;;17.58;37.66
49063;BME280;34876;51.464;-0.150;2023-02-15T09:39:22;102313.37;;;17.67;37.47
49063;BME280;34876;51.464;-0.150;2023-02-15T09:43:09;102308.84;;;17.73;37.33
49063;BME280;34876;51.464;-0.150;2023-02-15T09:46:00;102295.70;;;17.82;37.18
49063;BME280;34876;51.464;-0.150;2023-02-15T09:48:39;102295.63;;;17.87;37.12
49063;BME280;34876;51.464;-0.150;2023-02-15T09:51:27;102294.79;;;17.91;37.12
49063;BME280;34876;51.464;-0.150;2023-02-15T09:54:10;102298.73;;;18.03;36.85
49063;BME280;34876;51.464;-0.150;2023-02-15T09:56:47;102301.87;;;18.07;36.80
49063;BME280;34876;51.464;-0.150;2023-02-15T09:59:24;102301.85;;;17.98;37.17
49063;BME280;34876;51.464;-0.150;2023-02-15T10:02:05;102300.47;;;17.94;37.14
49063;BME280;34876;51.464;-0.150;2023-02-15T10:04:51;102295.95;;;17.91;37.25
49063;BME280;34876;51.464;-0.150;2023-02-15T10:07:40;102294.54;;;17.86;37.35
49063;BME280;34876;51.464;-0.150;2023-02-15T10:10:23;102289.12;;;17.80;37.55
49063;BME280;34876;51.464;-0.150;2023-02-15T10:10:38;102290.00;;;17.80;37.57
49063;BME280;34876;51.464;-0.150;2023-02-15T10:13:23;102285.87;;;17.90;37.36
49063;BME280;34876;51.464;-0.150;2023-02-15T10:16:12;102279.11;;;17.97;37.27
49063;BME280;34876;51.464;-0.150;2023-02-15T10:18:55;102271.05;;;18.06;37.03
49063;BME280;34876;51.464;-0.150;2023-02-15T10:21:41;102269.52;;;18.01;37.13
49063;BME280;34876;51.464;-0.150;2023-02-15T10:24:34;102269.97;;;17.97;37.27
49063;BME280;34876;51.464;-0.150;2023-02-15T10:27:11;102272.01;;;18.04;37.13
49063;BME280;34876;51.464;-0.150;2023-02-15T10:29:47;102277.54;;;18.04;37.23
49063;BME280;34876;51.464;-0.150;2023-02-15T10:32:22;102283.68;;;18.16;36.96
49063;BME280;34876;51.464;-0.150;2023-02-15T10:34:56;102281.37;;;18.13;37.07
49063;BME280;34876;51.464;-0.150;2023-02-15T10:37:43;102280.31;;;18.11;37.09
49063;BME280;34876;51.464;-0.150;2023-02-15T10:40:25;102280.16;;;18.18;36.97
49063;BME280;34876;51.464;-0.150;2023-02-15T10:43:08;102284.90;;;18.09;38.28
49063;BME280;34876;51.464;-0.150;2023-02-15T10:45:52;102287.28;;;18.06;37.33
49063;BME280;34876;51.464;-0.150;2023-02-15T10:48:39;102287.58;;;18.13;37.14
49063;BME280;34876;51.464;-0.150;2023-02-15T10:51:17;102283.99;;;18.10;37.26
49063;BME280;34876;51.464;-0.150;2023-02-15T10:54:02;102277.30;;;18.09;37.32
49063;BME280;34876;51.464;-0.150;2023-02-15T10:56:40;102274.20;;;18.02;37.45
49063;BME280;34876;51.464;-0.150;2023-02-15T10:59:25;102275.58;;;18.01;37.53
49063;BME280;34876;51.464;-0.150;2023-02-15T11:02:04;102273.80;;;18.06;37.45
49063;BME280;34876;51.464;-0.150;2023-02-15T11:04:44;102271.42;;;18.05;37.51
49063;BME280;34876;51.464;-0.150;2023-02-15T11:07:20;102267.62;;;18.03;37.71
49063;BME280;34876;51.464;-0.150;2023-02-15T11:09:56;102263.32;;;18.04;37.67
49063;BME280;34876;51.464;-0.150;2023-02-15T11:12:34;102257.15;;;18.08;37.46
49063;BME280;34876;51.464;-0.150;2023-02-15T11:15:13;102251.55;;;18.09;37.47
49063;BME280;34876;51.464;-0.150;2023-02-15T11:17:49;102250.72;;;18.08;37.50
49063;BME280;34876;51.464;-0.150;2023-02-15T11:20:25;102248.13;;;18.07;37.69
49063;BME280;34876;51.464;-0.150;2023-02-15T11:22:58;102249.20;;;18.09;37.58
49063;BME280;34876;51.464;-0.150;2023-02-15T11:25:30;102244.21;;;18.16;37.39
49063;BME280;34876;51.464;-0.150;2023-02-15T11:28:04;102239.53;;;18.17;37.38
49063;BME280;34876;51.464;-0.150;2023-02-15T11:30:43;102234.48;;;18.15;37.40
49063;BME280;34876;51.464;-0.150;2023-02-15T11:33:17;102232.10;;;18.18;37.34
49063;BME280;34876;51.464;-0.150;2023-02-15T11:35:51;102220.98;;;18.09;37.59
49063;BME280;34876;51.464;-0.150;2023-02-15T11:38:26;102215.54;;;18.07;37.87
49063;BME280;34876;51.464;-0.150;2023-02-15T11:41:00;102215.49;;;18.10;37.66
49063;BME280;34876;51.464;-0.150;2023-02-15T11:43:34;102216.07;;;18.06;37.73
49063;BME280;34876;51.464;-0.150;2023-02-15T11:46:07;102209.69;;;17.97;38.16
49063;BME280;34876;51.464;-0.150;2023-02-15T11:48:40;102209.43;;;18.06;37.86
49063;BME280;34876;51.464;-0.150;2023-02-15T11:51:16;102208.98;;;18.09;37.75
49063;BME280;34876;51.464;-0.150;2023-02-15T11:53:48;102204.96;;;18.07;37.81
49063;BME280;34876;51.464;-0.150;2023-02-15T11:56:21;102207.25;;;18.07;37.83
49063;BME280;34876;51.464;-0.150;2023-02-15T11:58:55;102214.25;;;18.09;37.77
49063;BME280;34876;51.464;-0.150;2023-02-15T12:01:31;102219.95;;;18.09;37.92
49063;BME280;34876;51.464;-0.150;2023-02-15T12:04:06;102223.95;;;18.03;38.44
49063;BME280;34876;51.464;-0.150;2023-02-15T12:06:45;102218.04;;;18.10;38.09
49063;BME280;34876;51.464;-0.150;2023-02-15T12:09:27;102218.43;;;18.10;38.13
49063;BME280;34876;51.464;-0.150;2023-02-15T12:12:20;102221.65;;;17.90;38.79
49063;BME280;34876;51.464;-0.150;2023-02-15T12:14:51;102213.01;;;17.98;38.93
49063;BME280;34876;51.464;-0.150;2023-02-15T12:17:23;102206.95;;;18.01;38.36
49063;BME280;34876;51.464;-0.150;2023-02-15T12:19:57;102202.37;;;18.04;38.27
49063;BME280;34876;51.464;-0.150;2023-02-15T12:22:31;102193.19;;;18.00;38.52
49063;BME280;34876;51.464;-0.150;2023-02-15T12:25:11;102188.94;;;17.98;38.62
49063;BME280;34876;51.464;-0.150;2023-02-15T12:27:50;102186.50;;;18.01;38.41
49063;BME280;34876;51.464;-0.150;2023-02-15T12:30:24;102186.41;;;18.04;38.34
49063;BME280;34876;51.464;-0.150;2023-02-15T12:32:58;102181.12;;;18.00;38.58
49063;BME280;34876;51.464;-0.150;2023-02-15T12:35:33;102174.27;;;17.95;39.09
49063;BME280;34876;51.464;-0.150;2023-02-15T12:38:21;102169.86;;;17.98;38.39
49063;BME280;34876;51.464;-0.150;2023-02-15T12:40:58;102175.83;;;17.88;38.72
49063;BME280;34876;51.464;-0.150;2023-02-15T12:43:31;102183.07;;;18.04;38.58
49063;BME280;34876;51.464;-0.150;2023-02-15T12:46:22;102182.35;;;17.78;39.12
49063;BME280;34876;51.464;-0.150;2023-02-15T12:49:14;102178.16;;;17.85;38.83
49063;BME280;34876;51.464;-0.150;2023-02-15T12:51:46;102180.46;;;17.92;38.65
49063;BME280;34876;51.464;-0.150;2023-02-15T12:54:17;102173.78;;;17.84;39.06
49063;BME280;34876;51.464;-0.150;2023-02-15T12:56:46;102171.84;;;17.99;38.78
49063;BME280;34876;51.464;-0.150;2023-02-15T12:59:21;102162.31;;;18.03;38.50
49063;BME280;34876;51.464;-0.150;2023-02-15T13:01:51;102161.56;;;18.04;38.46
49063;BME280;34876;51.464;-0.150;2023-02-15T13:04:25;102162.96;;;18.06;38.40
49063;BME280;34876;51.464;-0.150;2023-02-15T13:06:57;102160.60;;;17.95;39.01
49063;BME280;34876;51.464;-0.150;2023-02-15T13:09:37;102156.94;;;17.96;38.89
49063;BME280;34876;51.464;-0.150;2023-02-15T13:12:16;102153.94;;;18.04;38.55
49063;BME280;34876;51.464;-0.150;2023-02-15T13:14:49;102144.89;;;18.00;39.02